createdAt,value
2023-02-18T00:01:35.262Z,99274.97
2023-02-18T00:04:03.095Z,99271.22
2023-02-18T00:06:34.446Z,99280.09
2023-02-18T00:09:04.254Z,99289.16
2023-02-18T00:11:34.645Z,99280.84
2023-02-18T00:14:04.743Z,99303.72
2023-02-18T00:16:33.019Z,99317.31
2023-02-18T00:19:07.256Z,99317.06
2023-02-18T00:21:36.439Z,99320.34
2023-02-18T00:24:05.794Z,99326.16
2023-02-18T00:26:34.847Z,99328.34
2023-02-18T00:29:03.478Z,99339.72
2023-02-18T00:31:35.404Z,99340.06
2023-02-18T00:34:05.187Z,99328.81
2023-02-18T00:36:33.894Z,99319.69
2023-02-18T00:39:04.480Z,99329.38
2023-02-18T00:41:35.512Z,99340.56
2023-02-18T00:44:03.783Z,99343.28
2023-02-18T00:46:32.179Z,99341.59
2023-02-18T00:49:02.188Z,99339.72
2023-02-18T00:51:30.222Z,99343.53
2023-02-18T00:53:58.936Z,99342.28
2023-02-18T00:56:27.057Z,99332.94
2023-02-18T00:58:55.435Z,99334.19
2023-02-18T01:01:24.469Z,99355.19
2023-02-18T01:03:52.276Z,99333.44
2023-02-18T01:06:22.145Z,99336.00
2023-02-18T01:08:50.436Z,99342.44
2023-02-18T01:11:18.737Z,99354.06
2023-02-18T01:13:46.957Z,99344.63
2023-02-18T01:16:15.266Z,99341.84
2023-02-18T01:18:43.073Z,99348.72
2023-02-18T01:21:11.383Z,99339.06
2023-02-18T01:23:41.135Z,99330.59
2023-02-18T01:26:10.988Z,99334.47
2023-02-18T01:28:40.825Z,99347.13
2023-02-18T01:31:11.956Z,99341.34
2023-02-18T01:33:40.105Z,99342.41
2023-02-18T01:36:09.185Z,99347.81
2023-02-18T01:38:37.308Z,99346.75
2023-02-18T01:41:05.738Z,99354.25
2023-02-18T01:43:34.477Z,99338.38
2023-02-18T01:46:22.104Z,99344.53
2023-02-18T01:49:00.599Z,99340.50
2023-02-18T01:51:39.171Z,99347.28
2023-02-18T01:54:18.592Z,99347.56
2023-02-18T01:56:53.713Z,99338.94
2023-02-18T01:59:39.757Z,99335.38
2023-02-18T02:02:12.397Z,99319.88
2023-02-18T02:04:40.875Z,99341.34
2023-02-18T02:07:11.244Z,99341.56
2023-02-18T02:09:41.275Z,99342.13
2023-02-18T02:12:34.036Z,99328.38
2023-02-18T02:15:29.852Z,99324.81
2023-02-18T02:18:15.824Z,99324.97
2023-02-18T02:21:01.878Z,99336.25
2023-02-18T02:23:56.365Z,99320.00
2023-02-18T02:27:01.734Z,99319.31
2023-02-18T02:29:53.582Z,99321.28
2023-02-18T02:32:59.876Z,99314.97
2023-02-18T02:38:16.412Z,99333.44
2023-02-18T02:41:25.508Z,99316.28
2023-02-18T02:44:18.955Z,99331.06
2023-02-18T02:46:51.975Z,99337.66
2023-02-18T02:49:40.986Z,99328.81
2023-02-18T02:52:09.483Z,99346.38
2023-02-18T02:54:37.509Z,99338.50
2023-02-18T02:57:10.502Z,99340.56
2023-02-18T02:59:55.496Z,99340.84
2023-02-18T03:02:30.378Z,99342.66
2023-02-18T03:05:32.043Z,99322.50
2023-02-18T03:07:59.915Z,99356.56
2023-02-18T03:10:51.101Z,99358.16
2023-02-18T03:13:24.936Z,99368.75
2023-02-18T03:15:56.172Z,99363.78
2023-02-18T03:18:43.816Z,99363.88
2023-02-18T03:21:33.325Z,99370.78
2023-02-18T03:24:08.374Z,99369.19
2023-02-18T03:26:42.006Z,99379.56
2023-02-18T03:29:10.711Z,99362.34
2023-02-18T03:31:40.783Z,99376.47
2023-02-18T03:34:14.512Z,99370.63
2023-02-18T03:36:45.017Z,99380.13
2023-02-18T03:39:20.212Z,99382.31
2023-02-18T03:41:49.341Z,99395.88
2023-02-18T03:44:17.319Z,99378.72
2023-02-18T03:46:46.147Z,99394.50
2023-02-18T03:49:15.446Z,99379.56
2023-02-18T03:51:43.922Z,99380.28
2023-02-18T03:54:14.342Z,99402.25
2023-02-18T03:56:43.735Z,99406.50
2023-02-18T03:59:13.050Z,99385.72
2023-02-18T04:01:40.719Z,99396.09
2023-02-18T04:04:09.226Z,99396.81
2023-02-18T04:06:37.035Z,99396.16
2023-02-18T04:09:08.992Z,99387.59
2023-02-18T04:11:40.970Z,99401.41
2023-02-18T04:14:09.323Z,99387.69
2023-02-18T04:16:37.300Z,99414.06
2023-02-18T04:19:05.372Z,99405.47
2023-02-18T04:21:33.984Z,99393.38
2023-02-18T04:24:02.114Z,99405.56
2023-02-18T04:26:30.586Z,99408.22
2023-02-18T04:28:58.703Z,99409.63
2023-02-18T04:31:26.538Z,99410.53
2023-02-18T04:33:54.502Z,99399.41
2023-02-18T04:36:22.215Z,99403.88
2023-02-18T04:38:50.306Z,99407.25
2023-02-18T04:41:18.023Z,99409.16
2023-02-18T04:43:46.016Z,99400.47
2023-02-18T04:46:13.703Z,99421.25
2023-02-18T04:48:41.845Z,99421.44
2023-02-18T04:51:09.685Z,99424.75
2023-02-18T04:53:37.720Z,99421.38
2023-02-18T04:56:05.799Z,99433.25
2023-02-18T04:58:33.962Z,99415.97
2023-02-18T05:01:03.414Z,99439.44
2023-02-18T05:03:31.800Z,99437.63
2023-02-18T05:05:59.838Z,99423.13
2023-02-18T05:08:27.833Z,99439.38
2023-02-18T05:10:55.446Z,99436.91
2023-02-18T05:13:23.560Z,99429.94
2023-02-18T05:15:52.541Z,99444.63
2023-02-18T05:18:20.432Z,99437.88
2023-02-18T05:20:48.065Z,99439.03
2023-02-18T05:23:16.105Z,99456.94
2023-02-18T05:25:43.788Z,99447.72
2023-02-18T05:28:11.743Z,99459.69
2023-02-18T05:30:39.656Z,99441.28
2023-02-18T05:33:07.630Z,99468.28
2023-02-18T05:35:35.343Z,99468.50
2023-02-18T05:38:03.390Z,99468.00
2023-02-18T05:40:31.344Z,99471.97
2023-02-18T05:42:59.279Z,99472.06
2023-02-18T05:45:27.178Z,99475.56
2023-02-18T05:47:55.129Z,99465.44
2023-02-18T05:50:22.862Z,99478.97
2023-02-18T05:52:50.739Z,99471.09
2023-02-18T05:55:18.454Z,99473.22
2023-02-18T05:57:46.458Z,99484.34
2023-02-18T06:00:14.729Z,99470.53
2023-02-18T06:02:43.055Z,99475.66
2023-02-18T06:05:12.202Z,99480.75
2023-02-18T06:07:40.138Z,99482.38
2023-02-18T06:10:10.206Z,99475.47
2023-02-18T06:12:38.190Z,99467.63
2023-02-18T06:15:06.687Z,99469.38
2023-02-18T06:17:34.644Z,99476.75
2023-02-18T06:20:02.442Z,99501.97
2023-02-18T06:22:30.376Z,99488.97
2023-02-18T06:24:58.016Z,99499.19
2023-02-18T06:27:25.896Z,99506.25
2023-02-18T06:29:53.586Z,99520.88
2023-02-18T06:32:21.781Z,99507.81
2023-02-18T06:34:49.463Z,99525.75
2023-02-18T06:37:17.504Z,99529.47
2023-02-18T06:39:45.185Z,99519.75
2023-02-18T06:42:13.073Z,99527.50
2023-02-18T06:44:40.940Z,99525.78
2023-02-18T06:47:08.958Z,99512.63
2023-02-18T06:49:36.693Z,99534.25
2023-02-18T06:52:05.021Z,99524.00
2023-02-18T06:54:33.318Z,99517.06
2023-02-18T06:57:01.451Z,99519.53
2023-02-18T06:59:29.130Z,99514.25
2023-02-18T07:01:57.025Z,99493.06
2023-02-18T07:04:24.757Z,99516.97
2023-02-18T07:06:52.739Z,99517.81
2023-02-18T07:09:20.388Z,99521.38
2023-02-18T07:11:48.572Z,99540.03
2023-02-18T07:14:16.224Z,99530.69
2023-02-18T07:16:44.215Z,99531.56
2023-02-18T07:19:13.248Z,99537.22
2023-02-18T07:21:42.931Z,99537.97
2023-02-18T07:24:10.730Z,99540.72
2023-02-18T07:26:38.836Z,99537.16
2023-02-18T07:29:06.529Z,99551.63
2023-02-18T07:31:34.554Z,99547.56
2023-02-18T07:34:02.407Z,99533.91
2023-02-18T07:36:30.309Z,99535.75
2023-02-18T07:38:57.993Z,99535.97
2023-02-18T07:41:26.583Z,99544.13
2023-02-18T07:43:54.377Z,99541.13
2023-02-18T07:46:22.312Z,99551.53
2023-02-18T07:48:50.077Z,99546.41
2023-02-18T07:51:18.107Z,99553.84
2023-02-18T07:53:45.892Z,99561.28
2023-02-18T07:56:13.864Z,99558.72
2023-02-18T07:58:41.642Z,99552.53
2023-02-18T08:01:14.905Z,99557.94
2023-02-18T08:03:43.383Z,99557.81
2023-02-18T08:06:25.254Z,99568.56
2023-02-18T08:08:53.040Z,99569.78
2023-02-18T08:11:21.107Z,99566.63
2023-02-18T08:13:49.748Z,99570.09
2023-02-18T08:16:19.369Z,99576.56
2023-02-18T08:18:50.186Z,99558.72
2023-02-18T08:21:20.621Z,99574.16
2023-02-18T08:23:49.353Z,99575.84
2023-02-18T08:26:18.231Z,99578.84
2023-02-18T08:28:47.482Z,99568.94
2023-02-18T08:31:30.140Z,99566.44
2023-02-18T08:33:59.372Z,99588.22
2023-02-18T08:36:28.345Z,99575.31
2023-02-18T08:38:56.440Z,99564.56
2023-02-18T08:41:25.528Z,99570.00
2023-02-18T08:43:53.423Z,99561.16
2023-02-18T08:46:31.518Z,99564.56
2023-02-18T08:49:05.337Z,99559.22
2023-02-18T08:51:33.872Z,99576.53
2023-02-18T08:54:01.622Z,99550.59
2023-02-18T08:56:30.011Z,99578.56
2023-02-18T08:58:58.291Z,99580.00
2023-02-18T09:01:26.607Z,99577.19
2023-02-18T09:03:54.601Z,99571.44
2023-02-18T09:06:22.960Z,99576.50
2023-02-18T09:08:50.855Z,99579.16
2023-02-18T09:11:19.895Z,99590.13
2023-02-18T09:13:47.881Z,99574.22
2023-02-18T09:16:18.613Z,99579.31
2023-02-18T09:18:47.977Z,99571.03
2023-02-18T09:21:19.122Z,99573.97
2023-02-18T09:23:47.488Z,99574.31
2023-02-18T09:26:18.477Z,99574.91
2023-02-18T09:28:46.215Z,99600.44
2023-02-18T09:31:17.556Z,99588.25
2023-02-18T09:33:48.782Z,99582.72
2023-02-18T09:36:17.424Z,99588.50
2023-02-18T09:38:45.467Z,99604.97
2023-02-18T09:41:31.338Z,99587.78
2023-02-18T09:44:13.354Z,99594.56
2023-02-18T09:46:49.707Z,99593.50
2023-02-18T09:49:27.308Z,99623.69
2023-02-18T09:51:57.349Z,99605.38
2023-02-18T09:54:27.119Z,99598.69
2023-02-18T09:56:55.646Z,99605.38
2023-02-18T09:59:26.699Z,99607.41
2023-02-18T10:01:55.479Z,99625.31
2023-02-18T10:04:32.235Z,99606.78
2023-02-18T10:07:03.747Z,99621.09
2023-02-18T10:09:37.219Z,99613.38
2023-02-18T10:12:21.538Z,99618.38
2023-02-18T10:14:54.979Z,99622.91
2023-02-18T10:17:26.923Z,99624.63
2023-02-18T10:19:56.927Z,99622.47
2023-02-18T10:22:27.111Z,99616.78
2023-02-18T10:25:00.863Z,99620.44
2023-02-18T10:27:34.009Z,99617.03
2023-02-18T10:30:34.025Z,99618.25
2023-02-18T10:35:48.041Z,99628.75
2023-02-18T10:38:45.314Z,99624.44
2023-02-18T10:41:25.301Z,99619.22
2023-02-18T10:44:27.463Z,99608.28
2023-02-18T10:47:17.497Z,99617.28
2023-02-18T10:49:56.885Z,99615.88
2023-02-18T10:52:29.885Z,99615.59
2023-02-18T10:55:09.452Z,99612.97
2023-02-18T10:57:54.085Z,99604.41
2023-02-18T11:00:27.272Z,99590.94
2023-02-18T11:03:24.506Z,99600.03
2023-02-18T11:05:57.124Z,99599.25
2023-02-18T11:08:36.866Z,99595.22
2023-02-18T11:11:25.689Z,99611.31
2023-02-18T11:13:55.833Z,99612.00
2023-02-18T11:16:35.920Z,99613.72
2023-02-18T11:19:04.568Z,99612.56
2023-02-18T11:21:37.755Z,99603.41
2023-02-18T11:24:15.892Z,99604.25
2023-02-18T11:26:44.835Z,99596.38
2023-02-18T11:29:26.073Z,99592.56
2023-02-18T11:31:57.051Z,99589.22
2023-02-18T11:34:29.168Z,99576.19
2023-02-18T11:37:26.889Z,99584.75
2023-02-18T11:39:56.818Z,99581.16
2023-02-18T11:42:27.294Z,99587.00
2023-02-18T11:45:00.099Z,99593.34
2023-02-18T11:47:38.104Z,99579.97
2023-02-18T11:50:09.010Z,99582.91
2023-02-18T11:52:46.651Z,99570.19
2023-02-18T11:55:53.637Z,99583.53
2023-02-18T11:58:22.054Z,99567.78
2023-02-18T12:00:52.146Z,99576.75
2023-02-18T12:03:42.623Z,99592.16
2023-02-18T12:06:38.769Z,99584.31
2023-02-18T12:09:20.993Z,99576.97
2023-02-18T12:12:25.241Z,99583.34
2023-02-18T12:14:56.420Z,99566.38
2023-02-18T12:17:50.705Z,99570.69
2023-02-18T12:20:56.832Z,99572.38
2023-02-18T12:24:07.199Z,99554.09
2023-02-18T12:26:54.689Z,99566.19
2023-02-18T12:29:46.343Z,99554.97
2023-02-18T12:32:57.797Z,99576.53
2023-02-18T12:35:44.000Z,99577.22
2023-02-18T12:38:38.946Z,99575.88
2023-02-18T12:41:30.078Z,99570.19
2023-02-18T12:44:08.926Z,99557.97
2023-02-18T12:46:51.032Z,99563.44
2023-02-18T12:49:52.463Z,99550.50
2023-02-18T12:52:26.788Z,99553.78
2023-02-18T12:55:19.258Z,99545.41
2023-02-18T12:58:11.297Z,99547.09
2023-02-18T13:00:58.986Z,99543.59
2023-02-18T13:03:58.234Z,99539.25
2023-02-18T13:06:53.612Z,99538.94
2023-02-18T13:09:47.641Z,99554.06
2023-02-18T13:12:51.654Z,99532.31
2023-02-18T13:15:48.436Z,99528.63
2023-02-18T13:18:42.324Z,99534.75
2023-02-18T13:21:17.302Z,99528.19
2023-02-18T13:24:20.014Z,99527.72
2023-02-18T13:26:51.601Z,99525.16
2023-02-18T13:29:26.883Z,99524.81
2023-02-18T13:32:18.476Z,99522.63
2023-02-18T13:34:55.547Z,99537.59
2023-02-18T13:37:31.184Z,99527.81
2023-02-18T13:40:00.906Z,99527.81
2023-02-18T13:42:36.878Z,99527.72
2023-02-18T13:45:05.995Z,99528.22
2023-02-18T13:47:39.924Z,99530.19
2023-02-18T13:50:23.158Z,99532.09
2023-02-18T13:52:57.395Z,99532.69
2023-02-18T13:55:55.674Z,99529.97
2023-02-18T13:58:38.773Z,99536.81
2023-02-18T14:01:19.698Z,99538.13
2023-02-18T14:03:47.288Z,99525.28
2023-02-18T14:06:20.960Z,99513.19
2023-02-18T14:08:49.899Z,99515.25
2023-02-18T14:11:18.110Z,99516.84
2023-02-18T14:13:59.834Z,99501.66
2023-02-18T14:16:47.804Z,99518.63
2023-02-18T14:19:41.702Z,99515.13
2023-02-18T14:22:43.833Z,99519.66
2023-02-18T14:27:44.046Z,99511.03
2023-02-18T14:30:21.496Z,99505.69
2023-02-18T14:32:52.886Z,99508.41
2023-02-18T14:35:48.190Z,99499.38
2023-02-18T14:38:37.003Z,99488.56
2023-02-18T14:41:31.206Z,99479.00
2023-02-18T14:44:14.830Z,99477.50
2023-02-18T14:46:52.346Z,99481.22
2023-02-18T14:49:45.910Z,99470.28
2023-02-18T14:52:36.553Z,99465.84
2023-02-18T14:55:07.537Z,99467.94
2023-02-18T14:57:57.862Z,99460.13
2023-02-18T15:00:32.350Z,99462.53
2023-02-18T15:03:02.259Z,99466.34
2023-02-18T15:05:32.928Z,99469.84
2023-02-18T15:08:10.804Z,99475.25
2023-02-18T15:10:48.519Z,99473.56
2023-02-18T15:13:26.997Z,99463.63
2023-02-18T15:16:05.110Z,99461.47
2023-02-18T15:18:35.798Z,99477.63
2023-02-18T15:21:05.952Z,99475.97
2023-02-18T15:23:40.125Z,99479.06
2023-02-18T15:26:13.344Z,99492.66
2023-02-18T15:29:02.181Z,99480.31
2023-02-18T15:31:35.733Z,99490.16
2023-02-18T15:34:19.059Z,99481.16
2023-02-18T15:36:52.215Z,99490.78
2023-02-18T15:39:20.196Z,99473.75
2023-02-18T15:41:53.120Z,99482.94
2023-02-18T15:44:25.497Z,99486.56
2023-02-18T15:46:53.612Z,99490.94
2023-02-18T15:49:24.381Z,99488.47
2023-02-18T15:51:58.162Z,99490.28
2023-02-18T15:54:26.636Z,99484.56
2023-02-18T15:56:57.028Z,99486.78
2023-02-18T15:59:36.213Z,99493.91
2023-02-18T16:02:21.436Z,99498.28
2023-02-18T16:05:02.324Z,99498.28
2023-02-18T16:07:49.457Z,99497.34
2023-02-18T16:10:24.557Z,99504.50
2023-02-18T16:13:01.635Z,99504.34
2023-02-18T16:15:39.820Z,99493.13
2023-02-18T16:18:19.805Z,99491.94
2023-02-18T16:20:56.234Z,99496.28
2023-02-18T16:23:35.272Z,99489.81
2023-02-18T16:26:26.935Z,99502.81
2023-02-18T16:28:55.532Z,99507.34
2023-02-18T16:31:23.770Z,99499.69
2023-02-18T16:33:51.521Z,99511.69
2023-02-18T16:36:21.370Z,99513.28
2023-02-18T16:38:49.213Z,99506.38
2023-02-18T16:41:18.752Z,99501.28
2023-02-18T16:43:46.507Z,99501.91
2023-02-18T16:46:21.431Z,99511.72
2023-02-18T16:48:57.457Z,99500.50
2023-02-18T16:51:31.822Z,99510.88
2023-02-18T16:53:59.711Z,99509.41
2023-02-18T16:56:32.276Z,99509.50
2023-02-18T16:59:00.443Z,99504.53
2023-02-18T17:01:31.613Z,99518.56
2023-02-18T17:04:01.543Z,99513.25
2023-02-18T17:06:30.092Z,99513.91
2023-02-18T17:08:57.828Z,99518.56
2023-02-18T17:11:31.864Z,99513.59
2023-02-18T17:13:59.799Z,99506.31
2023-02-18T17:16:28.942Z,99499.38
2023-02-18T17:18:56.967Z,99504.53
2023-02-18T17:21:26.208Z,99506.25
2023-02-18T17:23:53.968Z,99500.34
2023-02-18T17:26:27.088Z,99499.63
2023-02-18T17:28:57.223Z,99489.94
2023-02-18T17:31:28.734Z,99495.19
2023-02-18T17:33:59.798Z,99502.06
2023-02-18T17:36:27.889Z,99492.59
2023-02-18T17:38:55.557Z,99493.34
2023-02-18T17:41:23.508Z,99490.91
2023-02-18T17:43:51.477Z,99494.94
2023-02-18T17:46:20.367Z,99493.44
2023-02-18T17:48:48.185Z,99492.47
2023-02-18T17:51:25.053Z,99493.00
2023-02-18T17:53:53.335Z,99493.34
2023-02-18T17:56:21.911Z,99493.13
2023-02-18T17:58:49.880Z,99493.94
2023-02-18T18:01:18.788Z,99492.16
2023-02-18T18:03:46.817Z,99480.50
2023-02-18T18:06:20.415Z,99490.16
2023-02-18T18:08:48.718Z,99491.09
2023-02-18T18:11:25.264Z,99481.88
2023-02-18T18:13:53.510Z,99475.25
2023-02-18T18:16:22.114Z,99458.47
2023-02-18T18:18:49.922Z,99464.63
2023-02-18T18:21:20.705Z,99462.00
2023-02-18T18:23:48.932Z,99468.03
2023-02-18T18:26:17.409Z,99461.78
2023-02-18T18:28:45.230Z,99454.13
2023-02-18T18:31:16.267Z,99463.59
2023-02-18T18:33:49.034Z,99462.84
2023-02-18T18:36:18.678Z,99460.31
2023-02-18T18:38:46.943Z,99462.72
2023-02-18T18:41:17.810Z,99459.94
2023-02-18T18:43:46.114Z,99465.28
2023-02-18T18:46:14.179Z,99450.59
2023-02-18T18:48:42.457Z,99439.38
2023-02-18T18:51:21.536Z,99435.25
2023-02-18T18:53:49.242Z,99431.19
2023-02-18T18:56:17.279Z,99431.63
2023-02-18T18:58:44.970Z,99435.31
2023-02-18T19:01:23.162Z,99435.47
2023-02-18T19:03:51.171Z,99441.50
2023-02-18T19:06:19.334Z,99446.53
2023-02-18T19:08:47.993Z,99463.72
2023-02-18T19:11:16.995Z,99468.34
2023-02-18T19:13:45.817Z,99464.69
2023-02-18T19:16:26.579Z,99462.97
2023-02-18T19:18:54.430Z,99485.72
2023-02-18T19:21:22.331Z,99497.72
2023-02-18T19:23:50.023Z,99506.97
2023-02-18T19:26:18.143Z,99497.94
2023-02-18T19:28:46.227Z,99497.69
2023-02-18T19:31:14.800Z,99515.09
2023-02-18T19:33:45.622Z,99516.16
2023-02-18T19:36:14.902Z,99520.59
2023-02-18T19:38:42.964Z,99520.81
2023-02-18T19:41:13.246Z,99517.22
2023-02-18T19:43:41.966Z,99518.13
2023-02-18T19:46:11.890Z,99511.28
2023-02-18T19:48:40.281Z,99521.22
2023-02-18T19:51:08.909Z,99540.84
2023-02-18T19:53:37.200Z,99554.75
2023-02-18T19:56:08.351Z,99560.03
2023-02-18T19:58:36.940Z,99570.28
2023-02-18T20:01:10.633Z,99568.50
2023-02-18T20:03:38.458Z,99569.41
2023-02-18T20:06:06.718Z,99576.16
2023-02-18T20:08:36.940Z,99570.16
2023-02-18T20:11:04.961Z,99572.84
2023-02-18T20:13:32.639Z,99581.78
2023-02-18T20:16:00.547Z,99584.56
2023-02-18T20:18:28.350Z,99587.22
2023-02-18T20:20:56.408Z,99589.72
2023-02-18T20:23:24.111Z,99593.34
2023-02-18T20:25:52.105Z,99598.69
2023-02-18T20:28:19.954Z,99601.09
2023-02-18T20:30:47.986Z,99599.56
2023-02-18T20:33:15.689Z,99599.56
2023-02-18T20:35:43.580Z,99600.66
2023-02-18T20:38:11.249Z,99602.38
2023-02-18T20:40:39.253Z,99606.81
2023-02-18T20:43:06.991Z,99613.56
2023-02-18T20:45:34.890Z,99603.22
2023-02-18T20:48:02.618Z,99609.25
2023-02-18T20:50:30.526Z,99615.41
2023-02-18T20:52:58.194Z,99616.03
2023-02-18T20:55:26.208Z,99622.31
2023-02-18T20:57:53.909Z,99610.91
2023-02-18T21:00:22.587Z,99615.97
2023-02-18T21:02:50.455Z,99625.63
2023-02-18T21:05:19.682Z,99627.16
2023-02-18T21:07:47.363Z,99627.25
2023-02-18T21:10:15.390Z,99626.25
2023-02-18T21:12:43.906Z,99630.66
2023-02-18T21:15:11.973Z,99634.16
2023-02-18T21:17:40.202Z,99635.03
2023-02-18T21:20:08.734Z,99641.09
2023-02-18T21:22:36.421Z,99646.53
2023-02-18T21:25:04.803Z,99635.88
2023-02-18T21:27:32.510Z,99646.31
2023-02-18T21:30:00.921Z,99652.34
2023-02-18T21:32:28.945Z,99658.41
2023-02-18T21:34:56.961Z,99660.06
2023-02-18T21:37:24.739Z,99671.28
2023-02-18T21:39:52.662Z,99667.00
2023-02-18T21:42:20.408Z,99665.63
2023-02-18T21:44:48.496Z,99671.81
2023-02-18T21:47:16.335Z,99678.44
2023-02-18T21:49:44.416Z,99679.53
2023-02-18T21:52:12.077Z,99672.06
2023-02-18T21:54:44.388Z,99679.97
2023-02-18T21:57:14.985Z,99687.69
2023-02-18T21:59:43.380Z,99687.72
2023-02-18T22:02:23.206Z,99681.91
2023-02-18T22:04:51.987Z,99703.31
2023-02-18T22:07:21.669Z,99707.72
2023-02-18T22:09:50.780Z,99731.72
2023-02-18T22:12:19.546Z,99731.03
2023-02-18T22:14:48.060Z,99736.19
2023-02-18T22:17:16.748Z,99740.53
2023-02-18T22:19:46.216Z,99741.41
2023-02-18T22:22:13.977Z,99737.84
2023-02-18T22:24:42.323Z,99739.31
2023-02-18T22:27:10.345Z,99746.03
2023-02-18T22:29:38.582Z,99750.34
2023-02-18T22:32:06.571Z,99757.09
2023-02-18T22:34:34.644Z,99769.84
2023-02-18T22:37:02.423Z,99769.75
2023-02-18T22:39:30.527Z,99761.97
2023-02-18T22:41:58.231Z,99766.22
2023-02-18T22:44:27.384Z,99771.84
2023-02-18T22:46:56.749Z,99782.22
2023-02-18T22:49:25.347Z,99783.28
2023-02-18T22:51:54.404Z,99772.16
2023-02-18T22:54:22.483Z,99772.81
2023-02-18T22:56:50.233Z,99779.69
2023-02-18T22:59:19.501Z,99786.78
2023-02-18T23:01:49.804Z,99781.72
2023-02-18T23:04:19.810Z,99779.06
2023-02-18T23:06:48.463Z,99783.59
2023-02-18T23:09:25.932Z,99787.00
2023-02-18T23:11:56.327Z,99780.94
2023-02-18T23:14:25.838Z,99793.72
2023-02-18T23:17:14.900Z,99795.75
2023-02-18T23:19:46.026Z,99805.22
2023-02-18T23:22:19.664Z,99807.84
2023-02-18T23:24:47.578Z,99806.03
2023-02-18T23:27:16.803Z,99814.78
2023-02-18T23:29:44.987Z,99820.75
2023-02-18T23:32:12.909Z,99813.88
2023-02-18T23:34:41.227Z,99814.59
2023-02-18T23:37:10.121Z,99821.56
2023-02-18T23:39:40.039Z,99820.66
2023-02-18T23:42:08.334Z,99818.22
2023-02-18T23:44:36.230Z,99824.13
2023-02-18T23:47:04.024Z,99830.94
2023-02-18T23:49:32.117Z,99831.78
2023-02-18T23:51:59.850Z,99821.66
2023-02-18T23:54:27.996Z,99826.78
2023-02-18T23:56:55.661Z,99827.56
2023-02-18T23:59:23.576Z,99820.75
